Time;durP1;ratioP1;P1;durP2;ratioP2;P2;SDS_P1;SDS_P2;PMS_P1;PMS_P2;Temp;Humidity;BMP_temperature;BMP_pressure;BME280_temperature;BME280_humidity;BME280_pressure;Samples;Min_cycle;Max_cycle;Signal;HPM_P1;HPM_P2
2022/06/12 00:01:07;;;;;;;15.30;4.70;;;12.50;99.90;;;;;;5044015;28;20051;-45
2022/06/12 00:03:33;;;;;;;9.35;4.15;;;12.50;99.90;;;;;;5043283;28;20052;-44
2022/06/12 00:06:02;;;;;;;12.00;4.50;;;12.40;99.90;;;;;;5044358;28;20053;-45
2022/06/12 00:08:30;;;;;;;9.98;4.57;;;12.40;99.90;;;;;;5009142;28;20064;-44
2022/06/12 00:10:58;;;;;;;13.80;4.38;;;12.40;99.90;;;;;;5022221;28;20542;-44
2022/06/12 00:13:39;;;;;;;10.68;4.65;;;12.40;99.90;;;;;;5042351;28;20443;-44
2022/06/12 00:16:07;;;;;;;10.27;4.43;;;12.40;99.90;;;;;;5019236;28;20496;-44
2022/06/12 00:18:33;;;;;;;13.07;5.00;;;12.40;99.90;;;;;;5043234;28;20080;-43
2022/06/12 00:21:13;;;;;;;10.52;4.03;;;12.40;99.90;;;;;;5043293;28;20051;-42
2022/06/12 00:23:52;;;;;;;13.13;4.97;;;12.50;99.90;;;;;;5042670;28;20053;-43
2022/06/12 00:26:31;;;;;;;11.43;4.70;;;12.50;99.90;;;;;;5043974;28;20056;-44
2022/06/12 00:29:20;;;;;;;11.57;4.20;;;12.50;99.90;;;;;;5025140;28;20256;-43
2022/06/12 00:31:52;;;;;;;9.50;3.88;;;12.50;99.90;;;;;;5041191;28;20049;-44
2022/06/12 00:34:22;;;;;;;10.43;4.63;;;12.40;99.90;;;;;;5042656;28;20041;-44
2022/06/12 00:36:48;;;;;;;17.15;5.15;;;12.40;99.90;;;;;;5043602;28;20132;-46
2022/06/12 00:39:15;;;;;;;13.35;5.22;;;12.40;99.90;;;;;;5043416;28;20127;-44
2022/06/12 00:41:42;;;;;;;9.55;4.05;;;12.40;99.90;;;;;;5042714;28;20530;-45
2022/06/12 00:44:11;;;;;;;13.13;4.28;;;12.30;99.90;;;;;;5043050;28;20091;-44
2022/06/12 00:46:57;;;;;;;12.15;5.30;;;12.30;99.90;;;;;;5025627;28;20148;-46
2022/06/12 00:49:25;;;;;;;11.98;4.05;;;12.30;99.90;;;;;;5042792;28;20049;-44
2022/06/12 00:51:56;;;;;;;10.00;4.22;;;12.30;99.90;;;;;;5043149;28;20408;-44
2022/06/12 00:54:24;;;;;;;13.40;4.60;;;12.30;99.90;;;;;;5045447;28;20053;-43
2022/06/12 00:56:54;;;;;;;12.23;4.65;;;12.30;99.90;;;;;;5023060;28;20056;-44
2022/06/12 00:59:45;;;;;;;10.70;4.85;;;12.30;99.90;;;;;;5038819;28;20055;-52
2022/06/12 01:02:15;;;;;;;14.63;4.65;;;12.30;99.90;;;;;;5027708;28;20127;-47
2022/06/12 01:07:30;;;;;;;11.10;5.07;;;12.30;99.90;;;;;;5042362;28;20057;-44
2022/06/12 01:09:59;;;;;;;12.25;4.57;;;12.30;99.90;;;;;;5041563;28;20041;-44
2022/06/12 01:12:30;;;;;;;15.95;5.20;;;12.30;99.90;;;;;;5042149;28;20049;-45
2022/06/12 01:15:04;;;;;;;10.68;4.82;;;12.30;99.90;;;;;;5042415;28;20055;-43
2022/06/12 01:17:30;;;;;;;10.45;4.43;;;12.30;99.90;;;;;;5021793;28;20060;-44
2022/06/12 01:20:00;;;;;;;12.27;5.30;;;12.30;99.90;;;;;;5042365;28;20049;-43
2022/06/12 01:23:04;;;;;;;13.73;5.00;;;12.20;99.90;;;;;;5035033;28;20463;-46
2022/06/12 01:25:44;;;;;;;14.23;5.45;;;12.30;99.90;;;;;;5041059;28;20049;-44
2022/06/12 01:28:32;;;;;;;11.82;4.97;;;12.20;99.90;;;;;;5042095;28;20075;-43
2022/06/12 01:31:06;;;;;;;15.00;4.75;;;12.30;99.90;;;;;;5023652;28;20543;-43
2022/06/12 01:33:50;;;;;;;12.20;4.55;;;12.20;99.90;;;;;;5023714;28;20055;-43
2022/06/12 01:36:42;;;;;;;16.38;5.88;;;12.20;99.90;;;;;;5041887;28;20060;-45
2022/06/12 01:39:16;;;;;;;11.43;5.25;;;12.10;99.90;;;;;;5041523;28;20385;-45
2022/06/12 01:41:54;;;;;;;10.52;5.18;;;12.10;99.90;;;;;;5041848;28;20053;-46
2022/06/12 01:45:07;;;;;;;12.82;4.82;;;12.00;99.90;;;;;;5035960;28;20079;-43
2022/06/12 01:47:35;;;;;;;13.13;5.50;;;12.00;99.90;;;;;;5041844;28;20049;-43
2022/06/12 01:50:12;;;;;;;12.70;5.68;;;12.00;99.90;;;;;;5021792;28;20055;-46
2022/06/12 01:53:08;;;;;;;9.95;4.88;;;12.00;99.90;;;;;;5041807;28;20064;-43
2022/06/12 01:55:59;;;;;;;12.40;5.65;;;12.00;99.90;;;;;;5040892;28;20044;-43
2022/06/12 01:58:53;;;;;;;15.52;5.38;;;12.00;99.90;;;;;;5021882;28;20049;-44
2022/06/12 02:01:31;;;;;;;14.15;5.03;;;12.00;99.90;;;;;;4962030;28;20062;-43
2022/06/12 02:04:01;;;;;;;12.30;5.25;;;12.00;99.90;;;;;;4951791;28;20058;-45
2022/06/12 02:06:33;;;;;;;15.18;5.60;;;12.00;99.90;;;;;;4951614;28;20141;-44
2022/06/12 02:09:11;;;;;;;13.82;5.30;;;12.00;99.90;;;;;;4953531;28;22013;-45
2022/06/12 02:14:34;;;;;;;;;;;12.00;99.90;;;;;;4963719;28;20093;-47
2022/06/12 02:17:02;;;;;;;16.73;6.07;;;12.00;99.90;;;;;;4966516;28;19926;-44
2022/06/12 02:19:33;;;;;;;11.25;5.10;;;11.90;99.90;;;;;;4966327;28;20058;-44
2022/06/12 02:22:13;;;;;;;13.77;5.72;;;11.90;99.90;;;;;;4966914;28;20142;-44
2022/06/12 02:24:53;;;;;;;15.02;5.55;;;11.90;99.90;;;;;;4960768;28;20058;-45
2022/06/12 02:27:32;;;;;;;12.48;5.28;;;11.90;99.90;;;;;;4960944;28;20058;-44
2022/06/12 02:30:05;;;;;;;14.57;5.38;;;11.90;99.90;;;;;;4966255;28;20129;-44
2022/06/12 02:32:37;;;;;;;15.60;5.38;;;11.80;99.90;;;;;;4950081;28;20145;-43
2022/06/12 02:35:32;;;;;;;13.25;5.40;;;11.80;99.90;;;;;;4966742;28;20089;-43
2022/06/12 02:38:05;;;;;;;17.85;5.32;;;11.90;99.90;;;;;;5000506;28;20059;-46
2022/06/12 02:41:23;;;;;;;14.07;4.93;;;11.80;99.90;;;;;;5048157;28;20091;-43
2022/06/12 02:43:54;;;;;;;18.33;5.38;;;11.80;99.90;;;;;;4947245;28;20081;-44
2022/06/12 02:47:01;;;;;;;10.35;5.07;;;11.80;99.90;;;;;;4947480;29;20074;-43
2022/06/12 02:49:43;;;;;;;13.10;5.88;;;11.80;99.90;;;;;;4961761;28;20062;-45
2022/06/12 02:52:42;;;;;;;13.60;5.03;;;11.70;99.90;;;;;;4965864;28;20477;-44
2022/06/12 02:55:29;;;;;;;12.98;5.32;;;11.70;99.90;;;;;;4949739;28;20079;-42
2022/06/12 02:58:30;;;;;;;12.30;5.15;;;11.70;99.90;;;;;;4966491;28;20129;-43
2022/06/12 03:00:59;;;;;;;17.52;5.85;;;11.60;99.90;;;;;;4965588;28;20062;-43
2022/06/12 03:03:42;;;;;;;13.55;5.65;;;11.60;99.90;;;;;;4965919;28;20145;-42
2022/06/12 03:06:14;;;;;;;15.43;5.32;;;11.60;99.90;;;;;;4966243;28;20438;-44
2022/06/12 03:08:46;;;;;;;13.10;5.00;;;11.60;99.90;;;;;;4966226;28;20055;-45
2022/06/12 03:11:37;;;;;;;18.67;6.10;;;11.60;99.90;;;;;;4963163;28;20336;-44
2022/06/12 03:14:14;;;;;;;18.23;5.30;;;11.60;99.90;;;;;;4912231;29;20325;-45
2022/06/12 03:16:44;;;;;;;15.35;4.88;;;11.60;99.90;;;;;;4924786;29;20117;-44
2022/06/12 03:19:23;;;;;;;12.30;4.72;;;11.60;99.90;;;;;;4919161;29;20063;-45
2022/06/12 03:22:12;;;;;;;16.55;4.55;;;11.70;99.90;;;;;;4961658;28;20063;-47
2022/06/12 03:25:04;;;;;;;11.65;6.47;;;11.70;99.90;;;;;;4963631;28;20189;-48
2022/06/12 03:28:01;;;;;;;15.75;5.28;;;11.70;99.90;;;;;;4961111;28;20097;-50
2022/06/12 03:30:40;;;;;;;14.38;5.97;;;11.70;99.90;;;;;;4962729;28;20137;-43
2022/06/12 03:33:33;;;;;;;12.15;5.13;;;11.70;99.90;;;;;;4934717;28;20161;-44
2022/06/12 03:36:54;;;;;;;13.23;5.30;;;11.70;99.90;;;;;;4961405;28;20078;-44
2022/06/12 03:39:35;;;;;;;15.18;4.18;;;11.70;99.90;;;;;;4894076;29;20123;-44
2022/06/12 03:42:25;;;;;;;14.60;4.78;;;11.70;99.90;;;;;;4885525;29;20191;-45
2022/06/12 03:45:06;;;;;;;11.43;4.68;;;11.80;99.90;;;;;;4905298;29;20159;-44
2022/06/12 03:47:50;;;;;;;15.55;4.55;;;11.90;99.90;;;;;;4903550;29;20586;-44
2022/06/12 03:50:27;;;;;;;12.93;4.22;;;11.90;99.90;;;;;;4912868;28;20118;-44
2022/06/12 03:53:27;;;;;;;16.13;4.38;;;12.00;99.90;;;;;;4962091;28;20113;-45
2022/06/12 03:59:25;;;;;;;12.40;3.65;;;12.20;99.90;;;;;;4956081;28;20054;-44
2022/06/12 04:01:51;;;;;;;12.07;4.00;;;12.60;99.90;;;;;;4942223;29;20121;-44
2022/06/12 04:04:21;;;;;;;10.15;4.50;;;12.70;99.90;;;;;;4926970;29;20550;-46
2022/06/12 04:06:48;;;;;;;12.05;4.13;;;12.80;99.90;;;;;;4942298;28;20861;-43
2022/06/12 04:09:19;;;;;;;11.02;3.75;;;12.90;99.90;;;;;;4926998;29;20113;-44
2022/06/12 04:11:54;;;;;;;9.65;3.53;;;13.40;99.90;;;;;;4942676;29;20055;-44
2022/06/12 04:14:28;;;;;;;10.63;3.33;;;14.00;99.90;;;;;;4954308;28;20073;-46
2022/06/12 04:17:09;;;;;;;10.93;3.83;;;14.40;99.90;;;;;;5005452;28;20068;-43
2022/06/12 04:19:58;;;;;;;10.90;4.38;;;15.00;99.90;;;;;;5021338;28;20396;-47
2022/06/12 04:22:32;;;;;;;10.57;3.00;;;15.60;99.90;;;;;;5022910;28;20053;-45
2022/06/12 04:25:20;;;;;;;10.60;3.85;;;16.10;99.90;;;;;;5023787;28;20060;-45
2022/06/12 04:27:47;;;;;;;10.00;3.25;;;16.70;99.90;;;;;;5022446;28;20077;-43
2022/06/12 04:30:18;;;;;;;8.73;2.97;;;17.10;99.90;;;;;;5022030;28;20042;-46
2022/06/12 04:32:44;;;;;;;11.32;3.17;;;17.60;99.90;;;;;;5024821;28;20053;-48
2022/06/12 04:35:10;;;;;;;10.98;2.90;;;18.00;99.90;;;;;;5026744;28;20056;-44
2022/06/12 04:37:36;;;;;;;10.65;3.90;;;18.30;99.90;;;;;;5020350;28;20076;-47
2022/06/12 04:40:05;;;;;;;10.27;3.25;;;18.60;99.90;;;;;;5020976;28;20049;-46
2022/06/12 04:42:32;;;;;;;9.95;3.33;;;19.10;99.90;;;;;;5022951;28;20053;-44
2022/06/12 04:45:00;;;;;;;10.57;3.72;;;19.50;99.90;;;;;;5022955;28;20122;-44
2022/06/12 04:47:28;;;;;;;12.40;3.83;;;20.00;99.90;;;;;;5023525;28;20056;-45
2022/06/12 04:49:55;;;;;;;19.23;4.28;;;20.40;99.90;;;;;;5021055;28;20095;-44
2022/06/12 04:52:24;;;;;;;9.93;3.35;;;20.80;99.90;;;;;;5032902;28;20056;-45
2022/06/12 04:54:50;;;;;;;8.77;3.45;;;21.20;99.90;;;;;;5042348;28;20045;-45
2022/06/12 04:57:17;;;;;;;14.30;3.88;;;21.60;99.90;;;;;;5042701;28;20407;-45
2022/06/12 04:59:44;;;;;;;12.63;3.38;;;22.00;99.90;;;;;;5041822;28;20478;-44
2022/06/12 05:02:10;;;;;;;9.90;3.05;;;22.50;99.90;;;;;;5036300;28;20044;-45
2022/06/12 05:04:37;;;;;;;10.98;3.28;;;22.80;99.90;;;;;;5042013;28;20559;-45
2022/06/12 05:07:04;;;;;;;14.85;4.03;;;23.10;99.90;;;;;;5042691;28;20507;-46
2022/06/12 05:09:33;;;;;;;13.70;3.85;;;23.40;99.90;;;;;;5041921;28;20504;-46
2022/06/12 05:11:59;;;;;;;14.38;3.65;;;23.70;99.90;;;;;;5041378;28;20423;-44
2022/06/12 05:14:24;;;;;;;10.82;3.88;;;24.10;99.90;;;;;;5041890;28;20503;-44
2022/06/12 05:17:14;;;;;;;14.60;4.07;;;24.40;99.90;;;;;;5042304;28;20040;-45
2022/06/12 05:19:41;;;;;;;12.20;4.22;;;24.50;99.90;;;;;;4940697;29;20450;-45
2022/06/12 05:22:10;;;;;;;10.25;4.03;;;24.80;99.90;;;;;;4940747;29;20063;-46
2022/06/12 05:24:36;;;;;;;12.30;3.80;;;24.70;99.90;;;;;;4919493;29;20074;-45
2022/06/12 05:27:06;;;;;;;16.70;4.70;;;24.40;99.90;;;;;;4925647;29;20590;-45
2022/06/12 05:29:35;;;;;;;10.98;4.05;;;23.80;99.90;;;;;;4940747;29;20761;-48
2022/06/12 05:32:01;;;;;;;17.67;5.20;;;23.50;99.90;;;;;;4940152;29;20410;-44
2022/06/12 05:34:30;;;;;;;14.82;4.35;;;23.90;99.90;;;;;;4940436;28;20043;-46
2022/06/12 05:36:57;;;;;;;15.10;4.90;;;24.70;99.90;;;;;;4941494;29;20423;-47
2022/06/12 05:39:25;;;;;;;12.98;4.75;;;25.20;99.60;;;;;;4925876;29;20050;-47
2022/06/12 05:41:52;;;;;;;11.98;4.75;;;25.60;99.50;;;;;;4940540;29;20536;-44
2022/06/12 05:44:20;;;;;;;15.10;4.30;;;25.90;99.40;;;;;;4925699;29;20988;-46
2022/06/12 05:46:46;;;;;;;14.48;4.75;;;26.10;98.60;;;;;;4941848;29;20130;-45
2022/06/12 05:49:13;;;;;;;12.27;4.55;;;26.30;98.30;;;;;;4944319;29;20297;-45
2022/06/12 05:51:39;;;;;;;21.05;5.13;;;26.60;98.40;;;;;;4941512;28;20553;-49
2022/06/12 05:54:05;;;;;;;13.65;5.30;;;26.80;98.00;;;;;;4925120;29;20090;-47
2022/06/12 05:56:34;;;;;;;13.50;5.28;;;26.90;97.80;;;;;;4983093;28;20143;-47
2022/06/12 05:59:01;;;;;;;12.48;4.75;;;27.00;97.30;;;;;;5040538;28;20045;-47
2022/06/12 06:01:27;;;;;;;16.77;5.10;;;27.10;97.50;;;;;;5022910;28;20049;-45
2022/06/12 06:03:54;;;;;;;14.35;5.22;;;27.00;97.20;;;;;;5041046;28;20158;-47
2022/06/12 06:06:29;;;;;;;17.80;5.95;;;26.90;97.10;;;;;;5041665;28;20468;-47
2022/06/12 06:08:56;;;;;;;16.17;5.65;;;27.50;97.20;;;;;;5040973;28;20045;-46
2022/06/12 06:11:22;;;;;;;15.40;5.22;;;27.90;97.50;;;;;;5041375;28;20371;-45
2022/06/12 06:13:48;;;;;;;16.10;5.72;;;28.10;97.10;;;;;;5021875;28;20053;-45
2022/06/12 06:16:16;;;;;;;16.90;5.85;;;28.50;96.50;;;;;;5040873;28;20131;-47
2022/06/12 06:18:43;;;;;;;19.85;6.63;;;28.50;96.10;;;;;;5040484;28;20131;-45
2022/06/12 06:21:11;;;;;;;18.65;6.53;;;28.90;96.20;;;;;;5042276;28;20124;-46
2022/06/12 06:23:39;;;;;;;19.20;7.35;;;29.40;95.70;;;;;;5040688;28;20054;-44
2022/06/12 06:26:05;;;;;;;14.80;5.00;;;29.80;95.80;;;;;;5039982;28;20567;-45
2022/06/12 06:28:39;;;;;;;16.73;5.35;;;30.30;95.30;;;;;;5040829;28;20546;-45
2022/06/12 06:31:10;;;;;;;20.77;6.40;;;30.40;94.40;;;;;;5041429;28;20048;-45
2022/06/12 06:33:37;;;;;;;22.98;7.15;;;30.70;93.90;;;;;;5040841;28;20053;-45
2022/06/12 06:36:03;;;;;;;16.48;5.78;;;30.50;93.70;;;;;;5040108;28;20060;-47
2022/06/12 06:38:29;;;;;;;22.40;6.70;;;30.50;93.30;;;;;;5040662;28;20045;-44
2022/06/12 06:40:55;;;;;;;17.98;6.25;;;30.40;93.60;;;;;;5041556;28;20049;-46
2022/06/12 06:43:21;;;;;;;14.70;6.35;;;30.70;93.30;;;;;;5041144;28;20045;-45
2022/06/12 06:48:31;;;;;;;18.75;6.72;;;30.60;93.40;;;;;;5038593;28;20496;-46
2022/06/12 06:50:57;;;;;;;21.17;6.55;;;29.90;93.30;;;;;;5036543;28;20092;-49
2022/06/12 06:53:23;;;;;;;22.33;7.43;;;30.20;93.30;;;;;;5044348;28;20136;-45
2022/06/12 06:55:49;;;;;;;23.83;7.00;;;30.20;92.90;;;;;;5044020;28;20380;-46
2022/06/12 06:58:19;;;;;;;20.25;6.07;;;29.40;92.90;;;;;;5042487;28;20515;-46
2022/06/12 07:00:48;;;;;;;19.77;7.00;;;29.10;93.90;;;;;;5019241;28;20059;-47
2022/06/12 07:03:15;;;;;;;19.23;7.55;;;28.80;93.90;;;;;;5045380;28;20114;-45
2022/06/12 07:05:43;;;;;;;20.70;6.88;;;28.20;93.90;;;;;;5045308;28;20059;-49
2022/06/12 07:08:10;;;;;;;21.40;7.43;;;27.40;94.70;;;;;;5044421;28;20682;-50
2022/06/12 07:10:36;;;;;;;14.25;5.10;;;27.30;95.20;;;;;;5048229;28;20453;-49
2022/06/12 07:13:07;;;;;;;19.67;6.82;;;27.80;95.10;;;;;;5044732;28;20045;-50
2022/06/12 07:15:34;;;;;;;18.43;5.23;;;27.80;93.60;;;;;;5042783;28;20045;-49
2022/06/12 07:18:01;;;;;;;19.40;6.75;;;27.40;93.70;;;;;;5040908;28;20045;-47
2022/06/12 07:20:32;;;;;;;20.15;6.65;;;27.10;93.80;;;;;;5037852;28;20110;-45
2022/06/12 07:22:58;;;;;;;21.20;6.75;;;27.70;94.40;;;;;;5040505;28;20068;-46
2022/06/12 07:25:24;;;;;;;15.05;5.30;;;27.80;94.50;;;;;;5041788;28;20480;-46
2022/06/12 07:27:49;;;;;;;17.20;5.32;;;27.80;94.20;;;;;;5036579;28;20081;-46
2022/06/12 07:30:19;;;;;;;17.00;5.82;;;27.30;93.70;;;;;;5042799;28;20384;-46
2022/06/12 07:32:46;;;;;;;13.55;5.68;;;27.10;93.90;;;;;;5024996;28;20448;-47
2022/06/12 07:35:12;;;;;;;16.80;5.95;;;26.90;94.50;;;;;;5043483;28;20041;-48
2022/06/12 07:37:39;;;;;;;19.25;7.10;;;26.90;94.90;;;;;;5043024;28;20531;-46
2022/06/12 07:40:08;;;;;;;15.63;4.72;;;26.90;95.00;;;;;;5024380;28;20347;-45
2022/06/12 07:42:34;;;;;;;14.88;5.50;;;26.80;94.90;;;;;;5036021;28;20143;-47
2022/06/12 07:45:01;;;;;;;17.67;5.65;;;26.70;94.90;;;;;;5043364;28;20037;-45
2022/06/12 07:47:27;;;;;;;13.77;4.82;;;26.20;95.20;;;;;;5043211;28;20507;-47
2022/06/12 07:49:53;;;;;;;13.63;4.63;;;26.10;95.20;;;;;;5042084;28;20110;-44
2022/06/12 07:52:20;;;;;;;12.77;4.28;;;26.00;94.80;;;;;;5042783;28;20053;-46
2022/06/12 07:54:46;;;;;;;12.30;4.60;;;26.10;95.30;;;;;;5042945;28;20561;-45
2022/06/12 07:57:12;;;;;;;14.52;5.15;;;26.20;95.00;;;;;;5041974;28;20099;-48
2022/06/12 07:59:38;;;;;;;13.80;5.43;;;26.20;94.20;;;;;;5042703;28;20049;-45
2022/06/12 08:02:05;;;;;;;10.27;3.83;;;26.30;95.10;;;;;;5042036;28;20539;-46
2022/06/12 08:04:31;;;;;;;9.48;4.10;;;26.40;95.20;;;;;;5043081;28;20131;-45
2022/06/12 08:06:57;;;;;;;12.65;3.90;;;26.40;94.20;;;;;;5042969;28;20051;-46
2022/06/12 08:09:23;;;;;;;10.20;4.30;;;26.20;94.60;;;;;;5042322;28;20049;-46
2022/06/12 08:11:50;;;;;;;14.60;4.72;;;26.50;94.70;;;;;;5019274;28;20463;-46
2022/06/12 08:14:18;;;;;;;12.90;4.47;;;26.20;94.40;;;;;;5035428;28;20535;-47
2022/06/12 08:16:44;;;;;;;10.45;3.80;;;25.60;94.10;;;;;;5042335;28;20444;-45
2022/06/12 08:22:03;;;;;;;12.27;3.97;;;25.10;95.40;;;;;;5042214;28;20083;-44
2022/06/12 08:24:30;;;;;;;10.73;3.47;;;25.20;95.40;;;;;;5042625;28;20059;-46
2022/06/12 08:26:55;;;;;;;10.75;3.40;;;25.40;94.80;;;;;;5042586;28;20515;-45
2022/06/12 08:29:23;;;;;;;13.63;3.50;;;25.60;94.00;;;;;;5042202;28;20060;-44
2022/06/12 08:31:54;;;;;;;9.30;3.30;;;25.40;92.90;;;;;;5042281;28;20064;-47
2022/06/12 08:34:27;;;;;;;10.07;3.40;;;25.30;93.40;;;;;;5046559;28;20052;-49
2022/06/12 08:36:56;;;;;;;7.75;3.08;;;25.30;93.90;;;;;;5044156;28;20056;-46
2022/06/12 08:39:22;;;;;;;9.65;3.15;;;25.30;93.40;;;;;;5042534;28;20136;-50
2022/06/12 08:42:07;;;;;;;7.20;2.72;;;25.20;93.40;;;;;;5041230;28;20470;-50
2022/06/12 08:44:49;;;;;;;8.10;3.10;;;25.20;93.50;;;;;;5041638;28;20118;-47
2022/06/12 08:47:32;;;;;;;6.93;2.88;;;25.00;93.30;;;;;;5042399;28;20045;-46
2022/06/12 08:50:27;;;;;;;8.52;3.35;;;25.10;93.70;;;;;;5041459;28;20535;-45
2022/06/12 08:53:07;;;;;;;8.45;3.40;;;25.10;93.30;;;;;;5018319;28;20052;-45
2022/06/12 08:55:57;;;;;;;10.93;3.30;;;24.90;93.80;;;;;;5041853;28;20522;-45
2022/06/12 08:58:32;;;;;;;6.10;2.90;;;24.70;94.10;;;;;;5017032;28;20081;-47
2022/06/12 09:01:00;;;;;;;10.10;3.28;;;24.70;94.50;;;;;;5039290;28;20057;-46
2022/06/12 09:03:29;;;;;;;8.15;3.58;;;24.40;93.80;;;;;;5023436;28;20090;-46
2022/06/12 09:06:19;;;;;;;6.93;3.38;;;23.80;93.90;;;;;;5040556;28;20128;-48
2022/06/12 09:09:06;;;;;;;8.27;3.22;;;23.90;93.90;;;;;;5039828;28;20053;-46
2022/06/12 09:11:41;;;;;;;9.75;3.60;;;24.00;94.60;;;;;;5039749;28;20569;-48
2022/06/12 09:14:29;;;;;;;11.85;3.60;;;24.30;94.80;;;;;;5039227;28;20037;-45
2022/06/12 09:17:28;;;;;;;8.10;3.28;;;24.30;94.70;;;;;;5036051;28;20045;-49
2022/06/12 09:20:15;;;;;;;8.68;3.38;;;24.30;93.30;;;;;;5023352;28;20045;-47
2022/06/12 09:22:54;;;;;;;17.15;4.50;;;24.60;94.40;;;;;;5041686;28;20636;-46
2022/06/12 09:25:37;;;;;;;6.63;2.65;;;24.70;94.70;;;;;;5040553;28;20393;-47
2022/06/12 09:28:12;;;;;;;6.68;3.00;;;24.90;94.50;;;;;;5035419;28;20142;-48
2022/06/12 09:30:43;;;;;;;9.45;3.22;;;25.10;94.20;;;;;;5041276;28;20056;-46
2022/06/12 09:33:32;;;;;;;7.20;3.10;;;24.90;94.30;;;;;;5041562;28;20087;-46
2022/06/12 09:36:19;;;;;;;8.68;3.20;;;25.00;95.10;;;;;;4939501;29;20067;-47
2022/06/12 09:39:06;;;;;;;7.57;3.08;;;24.90;94.60;;;;;;4940578;29;20130;-45
2022/06/12 09:41:53;;;;;;;7.75;3.30;;;25.00;94.10;;;;;;4922631;29;20521;-50
2022/06/12 09:44:31;;;;;;;14.30;3.38;;;25.00;93.10;;;;;;4924639;29;20118;-49
2022/06/12 09:47:14;;;;;;;8.98;2.70;;;25.20;93.70;;;;;;4940477;29;20061;-49
2022/06/12 09:50:07;;;;;;;8.93;2.92;;;25.10;92.80;;;;;;4941156;29;20115;-47
2022/06/12 09:52:49;;;;;;;;;;;25.20;93.40;;;;;;4934267;29;20051;-49
2022/06/12 09:55:35;;;;;;;8.33;3.23;;;25.10;94.30;;;;;;4932785;29;20502;-45
2022/06/12 09:58:20;;;;;;;11.63;3.38;;;25.10;93.00;;;;;;4936344;29;20043;-47
2022/06/12 10:00:53;;;;;;;7.63;2.83;;;24.80;93.10;;;;;;4925468;29;20686;-46
2022/06/12 10:03:39;;;;;;;8.50;2.80;;;24.60;92.80;;;;;;4942588;29;20051;-49
2022/06/12 10:06:24;;;;;;;6.53;2.78;;;24.50;94.50;;;;;;4940520;29;20054;-50
2022/06/12 10:09:08;;;;;;;9.43;3.90;;;24.70;93.30;;;;;;4934076;29;21054;-47
2022/06/12 10:11:44;;;;;;;7.68;3.05;;;24.50;94.50;;;;;;4940067;29;20155;-48
2022/06/12 10:14:14;;;;;;;6.90;3.20;;;24.70;93.90;;;;;;5030557;28;20057;-46
2022/06/12 10:16:49;;;;;;;6.85;3.42;;;24.60;93.50;;;;;;5034096;28;20049;-46
2022/06/12 10:19:18;;;;;;;7.70;2.88;;;24.30;93.20;;;;;;5039424;28;20045;-45
2022/06/12 10:21:53;;;;;;;7.75;3.10;;;24.00;93.10;;;;;;5044450;28;20371;-46
2022/06/12 10:24:20;;;;;;;10.68;3.47;;;24.00;94.40;;;;;;5043686;28;20044;-44
2022/06/12 10:27:13;;;;;;;10.15;3.00;;;24.00;92.50;;;;;;5026919;28;20459;-46
2022/06/12 10:29:47;;;;;;;6.32;3.63;;;24.00;93.20;;;;;;4962769;28;20427;-45
2022/06/12 10:32:16;;;;;;;9.80;2.78;;;23.90;93.80;;;;;;4962839;28;20058;-47
2022/06/12 10:34:42;;;;;;;8.95;3.10;;;24.00;93.20;;;;;;4960604;28;20477;-45
2022/06/12 10:37:22;;;;;;;10.73;3.55;;;24.30;93.00;;;;;;4961314;28;20549;-45
2022/06/12 10:40:21;;;;;;;11.20;3.72;;;24.00;93.50;;;;;;4955941;28;20086;-45
2022/06/12 10:42:55;;;;;;;9.55;3.33;;;23.50;93.40;;;;;;4957737;28;20054;-47
2022/06/12 10:45:28;;;;;;;8.35;3.47;;;23.20;93.70;;;;;;4956380;28;20050;-47
2022/06/12 10:47:57;;;;;;;9.70;3.55;;;23.20;94.10;;;;;;4957568;28;20547;-49
2022/06/12 10:50:33;;;;;;;11.23;3.13;;;23.50;95.20;;;;;;4957100;28;20973;-48
2022/06/12 10:53:00;;;;;;;6.45;2.95;;;23.70;94.80;;;;;;4956115;28;20130;-45
2022/06/12 10:55:55;;;;;;;10.93;3.03;;;23.60;93.40;;;;;;4955099;28;20130;-45
2022/06/12 10:58:41;;;;;;;6.78;3.20;;;23.90;94.10;;;;;;4956178;28;20568;-46
2022/06/12 11:01:34;;;;;;;9.82;3.53;;;23.90;93.20;;;;;;4919822;29;20587;-46
2022/06/12 11:04:13;;;;;;;9.70;3.00;;;23.80;94.80;;;;;;4923467;29;20055;-46
2022/06/12 11:07:03;;;;;;;10.05;3.45;;;24.20;94.80;;;;;;4941787;28;20105;-46
2022/06/12 11:09:37;;;;;;;12.93;3.47;;;24.00;93.90;;;;;;4957124;28;20066;-45
2022/06/12 11:12:50;;;;;;;9.60;3.15;;;23.80;94.00;;;;;;4960671;28;20633;-45
2022/06/12 11:15:20;;;;;;;5.93;3.13;;;23.50;94.60;;;;;;4919737;29;20066;-46
2022/06/12 11:17:52;;;;;;;11.32;4.07;;;23.30;94.00;;;;;;4923213;29;20147;-46
2022/06/12 11:20:39;;;;;;;11.25;3.53;;;23.20;94.00;;;;;;4922392;29;20327;-48
2022/06/12 11:23:19;;;;;;;7.57;3.33;;;23.10;93.90;;;;;;4923191;29;20583;-46
2022/06/12 11:26:22;;;;;;;9.25;2.70;;;23.20;94.90;;;;;;4907442;29;20462;-46
2022/06/12 11:29:06;;;;;;;10.10;3.78;;;23.00;93.40;;;;;;4923212;29;20103;-48
2022/06/12 11:31:55;;;;;;;8.63;2.65;;;23.10;95.20;;;;;;4924027;29;20055;-48
2022/06/12 11:35:00;;;;;;;6.60;2.85;;;22.80;94.20;;;;;;4924792;29;20051;-45
2022/06/12 11:37:37;;;;;;;8.00;2.83;;;22.90;94.20;;;;;;4922548;29;20067;-48
2022/06/12 11:40:31;;;;;;;7.68;3.08;;;23.10;93.70;;;;;;4929369;29;20059;-45
2022/06/12 11:43:18;;;;;;;7.07;3.00;;;22.90;94.20;;;;;;4937966;29;20062;-44
2022/06/12 11:46:07;;;;;;;9.85;3.38;;;22.90;94.00;;;;;;4922445;29;20055;-49
2022/06/12 11:49:11;;;;;;;6.50;2.75;;;22.70;93.90;;;;;;4933798;29;20059;-44
2022/06/12 11:52:02;;;;;;;8.32;3.33;;;23.10;95.80;;;;;;4966746;28;20041;-45
2022/06/12 11:54:53;;;;;;;6.85;2.63;;;23.20;94.40;;;;;;5033944;28;20493;-45
2022/06/12 11:57:31;;;;;;;7.32;2.53;;;23.00;94.00;;;;;;5032559;28;20045;-44
2022/06/12 12:00:08;;;;;;;6.60;2.22;;;22.80;93.20;;;;;;5036804;28;20582;-46
2022/06/12 12:02:44;;;;;;;7.97;2.70;;;22.70;93.50;;;;;;5033499;28;20492;-47
2022/06/12 12:05:36;;;;;;;5.63;2.10;;;22.70;92.80;;;;;;5036614;28;20049;-45
2022/06/12 12:08:17;;;;;;;5.00;2.28;;;22.80;92.00;;;;;;5031453;28;20067;-45
2022/06/12 12:11:05;;;;;;;5.70;2.08;;;22.60;90.10;;;;;;5031974;28;20042;-46
2022/06/12 12:13:42;;;;;;;5.25;2.22;;;22.40;91.90;;;;;;5012912;28;20091;-46
2022/06/12 12:16:22;;;;;;;8.35;2.58;;;22.60;92.20;;;;;;5011161;28;20598;-46
2022/06/12 12:18:53;;;;;;;5.20;2.60;;;22.50;92.00;;;;;;5034288;28;20610;-48
2022/06/12 12:21:39;;;;;;;7.10;2.50;;;22.40;92.20;;;;;;5027142;28;20045;-46
2022/06/12 12:24:15;;;;;;;9.25;2.58;;;22.00;92.60;;;;;;5030225;28;20051;-47
2022/06/12 12:26:43;;;;;;;8.35;2.80;;;21.90;92.10;;;;;;5030161;28;20042;-47
2022/06/12 12:29:16;;;;;;;10.13;3.15;;;21.80;93.60;;;;;;5035183;28;20041;-46
2022/06/12 12:31:45;;;;;;;7.93;3.15;;;22.00;94.70;;;;;;5031094;28;20045;-45
2022/06/12 12:34:20;;;;;;;8.43;3.35;;;22.10;95.10;;;;;;5011363;28;20472;-46
2022/06/12 12:42:23;;;;;;;9.90;3.33;;;22.40;94.30;;;;;;5029904;28;20341;-46
2022/06/12 12:44:57;;;;;;;10.38;3.10;;;22.40;94.40;;;;;;5025916;28;20057;-45
2022/06/12 12:47:27;;;;;;;8.45;3.25;;;22.00;94.30;;;;;;5016039;28;20053;-48
2022/06/12 12:50:10;;;;;;;8.73;3.15;;;22.00;93.90;;;;;;5031147;28;20550;-45
2022/06/12 12:52:43;;;;;;;8.77;2.88;;;22.10;95.60;;;;;;5031119;28;20096;-47
2022/06/12 12:55:29;;;;;;;11.55;4.53;;;22.20;94.50;;;;;;5033297;28;20525;-45
2022/06/12 12:57:58;;;;;;;10.32;4.28;;;22.00;93.60;;;;;;5035425;28;20045;-45
2022/06/12 13:00:34;;;;;;;8.05;3.13;;;22.00;95.00;;;;;;5045715;28;20052;-46
2022/06/12 13:03:08;;;;;;;10.55;2.92;;;22.30;96.40;;;;;;5043944;28;20299;-49
2022/06/12 13:05:46;;;;;;;8.43;2.88;;;22.50;96.00;;;;;;5043052;28;20056;-50
2022/06/12 13:08:38;;;;;;;7.00;3.08;;;22.40;95.60;;;;;;5040985;28;20048;-45
2022/06/12 13:11:07;;;;;;;8.63;3.25;;;22.70;96.00;;;;;;5041549;28;20056;-45
2022/06/12 13:13:53;;;;;;;5.55;2.60;;;22.80;94.60;;;;;;5041989;28;20052;-46
2022/06/12 13:16:36;;;;;;;7.55;2.85;;;22.60;95.30;;;;;;5042074;28;20391;-45
2022/06/12 13:19:20;;;;;;;9.35;3.63;;;22.50;95.60;;;;;;5040913;28;20056;-45
2022/06/12 13:22:12;;;;;;;9.68;3.80;;;22.60;95.10;;;;;;5041064;28;20464;-45
2022/06/12 13:24:41;;;;;;;10.20;3.75;;;22.40;95.70;;;;;;5040086;28;20049;-45
2022/06/12 13:27:18;;;;;;;10.60;3.92;;;22.10;94.80;;;;;;5037903;28;20395;-45
2022/06/12 13:29:45;;;;;;;7.75;3.47;;;22.10;94.50;;;;;;5036569;28;20555;-47
2022/06/12 13:32:19;;;;;;;10.35;3.47;;;22.40;95.50;;;;;;5041015;28;20088;-46
2022/06/12 13:34:56;;;;;;;9.60;3.58;;;22.40;94.70;;;;;;5041205;28;20056;-47
2022/06/12 13:37:23;;;;;;;12.20;3.88;;;22.10;94.50;;;;;;5041357;28;20511;-46
2022/06/12 13:39:48;;;;;;;11.80;3.83;;;22.00;96.00;;;;;;5033683;28;20044;-44
2022/06/12 13:42:20;;;;;;;11.75;3.78;;;22.20;96.50;;;;;;5039929;28;20048;-47
2022/06/12 13:44:48;;;;;;;8.85;3.35;;;22.10;96.00;;;;;;5041416;28;20582;-46